createdAt,value
2018-09-27T00:00:33.685Z,-19.8755
2018-09-27T00:01:38.276Z,-20.7898
2018-09-27T00:02:43.486Z,-21.7886
2018-09-27T00:03:48.803Z,-20.6259
2018-09-27T00:04:54.151Z,-20.1292
2018-09-27T00:05:59.061Z,-19.6271
2018-09-27T00:07:04.170Z,-20.1292
2018-09-27T00:08:09.046Z,-20.6259
2018-09-27T00:09:14.250Z,-19.6271
2018-09-27T00:10:20.105Z,-19.6271
2018-09-27T00:11:25.535Z,-19.1304
2018-09-27T00:12:31.490Z,-19.6271
2018-09-27T00:13:36.164Z,-19.6271
2018-09-27T00:14:41.591Z,-18.6283
2018-09-27T00:15:47.617Z,-19.3788
2018-09-27T00:16:53.050Z,-18.6283
2018-09-27T00:17:57.934Z,-19.3788
2018-09-27T00:19:03.767Z,-19.1304
2018-09-27T00:20:09.206Z,-19.6271
2018-09-27T00:21:14.510Z,-19.1304
2018-09-27T00:22:19.443Z,-18.882
2018-09-27T00:23:24.640Z,-18.1316
2018-09-27T00:24:30.148Z,-18.882
2018-09-27T00:25:35.323Z,-19.3788
2018-09-27T00:26:40.258Z,-18.882
2018-09-27T00:27:45.702Z,-19.1304
2018-09-27T00:28:50.941Z,-18.1316
2018-09-27T00:29:56.469Z,-19.1304
2018-09-27T00:31:01.566Z,-19.1304
2018-09-27T00:32:06.717Z,-19.3788
2018-09-27T00:33:12.230Z,-18.882
2018-09-27T00:34:18.062Z,-19.3788
2018-09-27T00:35:23.139Z,-19.3788
2018-09-27T00:36:29.222Z,-19.1304
2018-09-27T00:37:34.683Z,-18.38
2018-09-27T00:38:39.551Z,-19.6271
2018-09-27T00:39:44.626Z,-19.3788
2018-09-27T00:40:49.497Z,-18.882
2018-09-27T00:41:54.643Z,-19.3788
2018-09-27T00:43:00.506Z,-18.882
2018-09-27T00:44:05.379Z,-18.1316
2018-09-27T00:45:10.853Z,-18.38
2018-09-27T00:46:16.556Z,-18.882
2018-09-27T00:47:21.989Z,-18.6283
2018-09-27T00:48:27.690Z,-19.1304
2018-09-27T00:49:32.921Z,-18.38
2018-09-27T00:50:38.345Z,-19.1304
2018-09-27T00:51:43.966Z,-18.6283
2018-09-27T00:52:49.423Z,-18.1316
2018-09-27T00:53:54.564Z,-19.3788
2018-09-27T00:55:00.244Z,-18.1316
2018-09-27T00:56:05.724Z,-18.6283
2018-09-27T00:57:10.313Z,-18.1316
2018-09-27T00:58:15.759Z,-19.1304
2018-09-27T00:59:20.674Z,-19.1304
2018-09-27T01:00:40.534Z,-18.1316
2018-09-27T01:01:45.411Z,-18.6283
2018-09-27T01:02:50.552Z,-20.1292
2018-09-27T01:03:56.452Z,-18.1316
2018-09-27T01:05:01.446Z,-18.38
2018-09-27T01:06:05.762Z,-18.6283
2018-09-27T01:07:11.208Z,-18.882
2018-09-27T01:08:16.209Z,-18.1316
2018-09-27T01:09:21.388Z,-18.6283
2018-09-27T01:10:27.282Z,-17.8832
2018-09-27T01:11:32.307Z,-17.7141
2018-09-27T01:12:37.708Z,-18.1316
2018-09-27T01:13:43.176Z,-18.1316
2018-09-27T01:14:48.655Z,-18.6283
2018-09-27T01:15:53.792Z,-18.6283
2018-09-27T01:16:59.222Z,-17.4657
2018-09-27T01:18:04.396Z,-17.8832
2018-09-27T01:19:09.535Z,-17.2174
2018-09-27T01:20:14.786Z,-18.38
2018-09-27T01:21:20.337Z,-17.4657
2018-09-27T01:22:25.493Z,-16.969
2018-09-27T01:23:30.693Z,-17.2174
2018-09-27T01:24:36.236Z,-16.7206
2018-09-27T01:25:41.389Z,-16.969
2018-09-27T01:26:47.099Z,-16.969
2018-09-27T01:27:52.922Z,-16.7206
2018-09-27T01:28:57.792Z,-16.969
2018-09-27T01:30:02.482Z,-16.969
2018-09-27T01:31:07.412Z,-16.969
2018-09-27T01:32:12.559Z,-16.4722
2018-09-27T01:33:17.699Z,-16.969
2018-09-27T01:34:23.337Z,-16.7206
2018-09-27T01:35:28.496Z,-17.2174
2018-09-27T01:36:34.037Z,-15.7218
2018-09-27T01:37:39.124Z,-15.7218
2018-09-27T01:38:44.565Z,-16.2238
2018-09-27T01:39:50.024Z,-15.2198
2018-09-27T01:40:54.889Z,-16.2238
2018-09-27T01:42:00.319Z,-15.2198
2018-09-27T01:43:05.937Z,-15.7218
2018-09-27T01:44:11.090Z,-15.7218
2018-09-27T01:45:16.250Z,-15.2198
2018-09-27T01:46:21.697Z,-15.2198
2018-09-27T01:47:27.212Z,-15.2198
2018-09-27T01:48:33.165Z,-15.0559
2018-09-27T01:49:38.640Z,-14.3108
2018-09-27T01:50:44.088Z,-15.7218
2018-09-27T01:51:49.205Z,-14.8076
2018-09-27T01:52:54.195Z,-15.0559
2018-09-27T01:53:59.710Z,-15.0559
2018-09-27T01:55:04.614Z,-14.5592
2018-09-27T01:56:09.481Z,-14.8076
2018-09-27T01:57:14.624Z,-14.0571
2018-09-27T01:58:20.240Z,-14.3108
2018-09-27T01:59:25.667Z,-14.3108
2018-09-27T02:00:31.217Z,-14.5592
2018-09-27T02:01:36.647Z,-14.5592
2018-09-27T02:02:41.788Z,-15.7218
2018-09-27T02:03:47.189Z,-15.9755
2018-09-27T02:04:52.685Z,-14.5592
2018-09-27T02:05:58.116Z,-15.0559
2018-09-27T02:07:03.606Z,-14.5592
2018-09-27T02:08:08.844Z,-14.8076
2018-09-27T02:09:13.438Z,-14.0571
2018-09-27T02:10:19.134Z,-14.3108
2018-09-27T02:11:24.074Z,-13.8933
2018-09-27T02:12:30.030Z,-13.8933
2018-09-27T02:13:35.204Z,-14.0571
2018-09-27T02:14:40.721Z,-14.0571
2018-09-27T02:15:46.170Z,-14.0571
2018-09-27T02:16:51.315Z,-13.8933
2018-09-27T02:17:56.782Z,-13.6449
2018-09-27T02:19:02.297Z,-13.1482
2018-09-27T02:20:07.175Z,-13.8933
2018-09-27T02:21:12.607Z,-13.8933
2018-09-27T02:22:18.035Z,-13.6449
2018-09-27T02:23:22.919Z,-13.1482
2018-09-27T02:24:28.473Z,-13.1482
2018-09-27T02:25:33.922Z,-13.3966
2018-09-27T02:26:39.352Z,-12.2339
2018-09-27T02:27:44.717Z,-13.8933
2018-09-27T02:28:50.150Z,-12.2339
2018-09-27T02:29:55.066Z,-12.6461
2018-09-27T02:31:00.930Z,-11.9803
2018-09-27T02:32:06.073Z,-12.8945
2018-09-27T02:33:11.015Z,-11.9803
2018-09-27T02:34:16.221Z,-12.2339
2018-09-27T02:35:21.361Z,-12.2339
2018-09-27T02:36:41.572Z,-12.2339
2018-09-27T02:37:46.725Z,-11.7319
2018-09-27T02:38:51.933Z,-11.7319
2018-09-27T02:39:57.762Z,-10.9868
2018-09-27T02:41:03.200Z,-10.7331
2018-09-27T02:42:08.367Z,-10.7331
2018-09-27T02:43:14.049Z,-11.9803
2018-09-27T02:44:19.234Z,-10.7331
2018-09-27T02:45:24.371Z,-11.9803
2018-09-27T02:46:29.968Z,-10.9868
2018-09-27T02:47:34.824Z,-11.2351
2018-09-27T02:48:40.224Z,-11.2351
2018-09-27T02:49:45.436Z,-11.4835
2018-09-27T02:50:50.302Z,-10.7331
2018-09-27T02:51:55.897Z,-10.9868
2018-09-27T02:53:01.328Z,-10.4847
2018-09-27T02:54:06.189Z,-10.7331
2018-09-27T02:55:11.886Z,-10.4847
2018-09-27T02:56:17.077Z,-10.4847
2018-09-27T02:57:22.511Z,-10.4847
2018-09-27T02:58:42.452Z,-9.5705
2018-09-27T02:59:47.979Z,-10.0672
2018-09-27T03:00:53.204Z,-10.2363
2018-09-27T03:01:57.934Z,-10.2363
2018-09-27T03:03:02.529Z,-11.2351
2018-09-27T03:04:07.755Z,-11.2351
2018-09-27T03:05:13.226Z,-10.9868
2018-09-27T03:06:18.091Z,-10.9868
2018-09-27T03:07:23.507Z,-10.9868
2018-09-27T03:08:29.030Z,-10.7331
2018-09-27T03:09:34.282Z,-9.8189
2018-09-27T03:10:39.499Z,-10.7331
2018-09-27T03:11:45.036Z,-10.4847
2018-09-27T03:12:50.531Z,-10.0672
2018-09-27T03:13:56.004Z,-10.2363
2018-09-27T03:15:01.652Z,-10.9868
2018-09-27T03:16:06.902Z,-10.2363
2018-09-27T03:17:12.043Z,-10.7331
2018-09-27T03:18:17.195Z,-9.8189
2018-09-27T03:19:22.876Z,-10.2363
2018-09-27T03:20:28.356Z,-10.7331
2018-09-27T03:21:34.286Z,-10.2363
2018-09-27T03:22:39.433Z,-10.9868
2018-09-27T03:23:44.597Z,-10.4847
2018-09-27T03:24:50.318Z,-10.4847
2018-09-27T03:25:55.751Z,-10.7331
2018-09-27T03:27:01.234Z,-10.2363
2018-09-27T03:28:06.996Z,-10.2363
2018-09-27T03:29:12.206Z,-10.7331
2018-09-27T03:30:17.380Z,-10.4847
2018-09-27T03:31:23.227Z,-9.9827
2018-09-27T03:32:28.780Z,-10.7331
2018-09-27T03:33:35.423Z,-10.7331
2018-09-27T03:34:40.294Z,-9.8189
2018-09-27T03:35:44.947Z,-10.4847
2018-09-27T03:36:50.570Z,-10.9868
2018-09-27T03:37:56.001Z,-10.9868
2018-09-27T03:39:00.915Z,-10.9868
2018-09-27T03:40:06.867Z,-9.8189
2018-09-27T03:41:11.998Z,-10.4847
2018-09-27T03:42:17.238Z,-10.7331
2018-09-27T03:43:22.663Z,-10.2363
2018-09-27T03:44:28.090Z,-9.8189
2018-09-27T03:45:33.487Z,-10.2363
2018-09-27T03:46:38.924Z,-10.2363
2018-09-27T03:47:44.115Z,-10.2363
2018-09-27T03:48:50.024Z,-10.2363
2018-09-27T03:49:55.186Z,-10.4847
2018-09-27T03:51:00.614Z,-10.2363
2018-09-27T03:52:06.100Z,-9.0684
2018-09-27T03:53:11.560Z,-10.2363
2018-09-27T03:54:16.710Z,-9.5705
2018-09-27T03:55:22.432Z,-9.7343
2018-09-27T03:56:27.659Z,-10.4847
2018-09-27T03:57:33.493Z,-10.2363
2018-09-27T03:58:38.920Z,-9.9827
2018-09-27T03:59:43.514Z,-9.0684
2018-09-27T04:00:48.924Z,-9.0684
2018-09-27T04:01:54.142Z,-9.3168
2018-09-27T04:02:59.325Z,-9.5705
2018-09-27T04:04:04.164Z,-8.5717
2018-09-27T04:05:08.783Z,-9.3168
2018-09-27T04:06:14.095Z,-9.3168
2018-09-27T04:07:19.874Z,-8.5717
2018-09-27T04:08:25.322Z,-9.0684
2018-09-27T04:09:30.963Z,-8.5717
2018-09-27T04:10:36.389Z,-9.2375
2018-09-27T04:11:41.904Z,-8.7355
2018-09-27T04:12:47.805Z,-8.9892
2018-09-27T04:13:52.976Z,-9.2375
2018-09-27T04:14:58.128Z,-8.7355
2018-09-27T04:16:03.531Z,-8.9892
2018-09-27T04:17:08.758Z,-8.7355
2018-09-27T04:18:13.362Z,-9.2375
2018-09-27T04:19:19.240Z,-8.7355
2018-09-27T04:20:24.479Z,-8.4871
2018-09-27T04:21:30.166Z,-8.4871
2018-09-27T04:22:35.373Z,-8.9046
2018-09-27T04:23:40.588Z,-9.153
2018-09-27T04:24:45.869Z,-7.9904
2018-09-27T04:25:51.132Z,-8.6562
2018-09-27T04:26:56.703Z,-8.4079
2018-09-27T04:28:01.554Z,-8.6562
2018-09-27T04:29:06.703Z,-9.4014
2018-09-27T04:30:12.210Z,-9.153
2018-09-27T04:31:18.092Z,-9.153
2018-09-27T04:32:23.243Z,-8.1542
2018-09-27T04:33:28.785Z,-9.5705
2018-09-27T04:34:33.764Z,-8.4079
2018-09-27T04:35:38.916Z,-8.1542
2018-09-27T04:36:44.121Z,-8.9046
2018-09-27T04:37:49.555Z,-8.4079
2018-09-27T04:38:54.234Z,-8.6562
2018-09-27T04:39:59.963Z,-8.8201
2018-09-27T04:41:05.035Z,-8.4079
2018-09-27T04:42:10.630Z,-8.3233
2018-09-27T04:43:15.749Z,-8.3233
2018-09-27T04:44:20.607Z,-8.5717
2018-09-27T04:45:41.122Z,-8.5717
2018-09-27T04:46:46.834Z,-9.0684
2018-09-27T04:47:52.037Z,-8.5717
2018-09-27T04:48:57.678Z,-8.3233
2018-09-27T04:50:02.859Z,-8.5717
2018-09-27T04:51:08.053Z,-8.8201
2018-09-27T04:52:13.228Z,-8.5717
2018-09-27T04:53:18.788Z,-8.0749
2018-09-27T04:54:23.961Z,-8.5717
2018-09-27T04:55:29.641Z,-7.8213
2018-09-27T04:56:35.068Z,-8.8201
2018-09-27T04:57:40.723Z,-7.8213
2018-09-27T04:58:45.616Z,-8.3233
2018-09-27T04:59:50.590Z,-7.8213
2018-09-27T05:00:56.130Z,-7.5729
2018-09-27T05:02:01.760Z,-7.0761
2018-09-27T05:03:06.621Z,-7.3245
2018-09-27T05:04:12.565Z,-7.5729
2018-09-27T05:05:18.094Z,-7.0761
2018-09-27T05:06:22.978Z,-7.3245
2018-09-27T05:07:28.858Z,-6.5741
2018-09-27T05:08:33.749Z,-7.3245
2018-09-27T05:09:39.397Z,-7.5729
2018-09-27T05:10:44.732Z,-7.0761
2018-09-27T05:11:49.913Z,-7.0761
2018-09-27T05:12:55.039Z,-6.5741
2018-09-27T05:14:00.190Z,-6.5741
2018-09-27T05:15:04.493Z,-6.5741
2018-09-27T05:16:09.921Z,-5.829
2018-09-27T05:17:15.099Z,-6.5741
2018-09-27T05:18:20.546Z,-6.3257
2018-09-27T05:19:26.730Z,-6.5741
2018-09-27T05:20:32.288Z,-6.7432
2018-09-27T05:21:38.549Z,-6.5741
2018-09-27T05:22:44.245Z,-7.4883
2018-09-27T05:23:49.137Z,-6.9916
2018-09-27T05:24:54.887Z,-6.4948
2018-09-27T05:25:59.558Z,-7.24
2018-09-27T05:27:04.792Z,-6.4948
2018-09-27T05:28:10.310Z,-7.24
2018-09-27T05:29:15.460Z,-6.4948
2018-09-27T05:30:20.626Z,-6.2412
2018-09-27T05:31:26.041Z,-5.9928
2018-09-27T05:32:31.576Z,-6.7432
2018-09-27T05:33:37.520Z,-6.7432
2018-09-27T05:34:42.851Z,-6.7432
2018-09-27T05:35:48.289Z,-6.4948
2018-09-27T05:36:53.585Z,-6.0773
2018-09-27T05:37:59.012Z,-6.9916
2018-09-27T05:39:04.245Z,-6.4948
2018-09-27T05:40:09.482Z,-6.2412
2018-09-27T05:41:14.943Z,-6.7432
2018-09-27T05:42:20.249Z,-6.7432
2018-09-27T05:43:25.928Z,-6.2412
2018-09-27T05:44:31.079Z,-6.7432
2018-09-27T05:45:36.929Z,-6.3257
2018-09-27T05:46:42.279Z,-6.9916
2018-09-27T05:47:47.725Z,-6.5741
2018-09-27T05:48:53.535Z,-6.7432
2018-09-27T05:49:58.326Z,-6.5741
2018-09-27T05:51:02.379Z,-6.3257
2018-09-27T05:52:07.539Z,-7.24
2018-09-27T05:53:13.034Z,-6.9916
2018-09-27T05:54:18.265Z,-6.8278
2018-09-27T05:55:23.857Z,-7.24
2018-09-27T05:56:29.011Z,-6.0773
2018-09-27T05:57:34.546Z,-6.3257
2018-09-27T05:58:40.135Z,-6.3257
2018-09-27T05:59:45.284Z,-6.8278
2018-09-27T06:00:50.716Z,-6.8278
2018-09-27T06:01:55.992Z,-7.742
2018-09-27T06:03:01.379Z,-7.9904
2018-09-27T06:04:06.786Z,-7.4883
2018-09-27T06:05:11.663Z,-7.742
2018-09-27T06:06:16.815Z,-8.2388
2018-09-27T06:07:22.625Z,-7.0761
2018-09-27T06:08:27.775Z,-7.3245
2018-09-27T06:09:33.864Z,-7.5729
2018-09-27T06:10:39.236Z,-8.3233
2018-09-27T06:11:44.683Z,-7.5729
2018-09-27T06:12:50.521Z,-7.3245
2018-09-27T06:13:55.173Z,-7.5729
2018-09-27T06:15:00.604Z,-7.8213
2018-09-27T06:16:06.060Z,-6.6586
2018-09-27T06:17:11.214Z,-7.4091
2018-09-27T06:18:16.641Z,-6.6586
2018-09-27T06:19:22.651Z,-7.4091
2018-09-27T06:20:27.890Z,-7.1554
2018-09-27T06:21:34.086Z,-7.4091
2018-09-27T06:22:39.451Z,-7.4091
2018-09-27T06:23:44.877Z,-7.9058
2018-09-27T06:24:50.456Z,-7.4091
2018-09-27T06:25:55.932Z,-7.6574
2018-09-27T06:27:00.851Z,-6.7432
2018-09-27T06:28:06.412Z,-8.2388
2018-09-27T06:29:11.598Z,-6.9916
2018-09-27T06:30:17.027Z,-8.4871
2018-09-27T06:31:22.529Z,-7.0761
2018-09-27T06:32:27.732Z,-7.3245
2018-09-27T06:33:34.164Z,-6.8278
2018-09-27T06:34:39.047Z,-8.2388
2018-09-27T06:35:44.511Z,-7.5729
2018-09-27T06:36:49.943Z,-7.8213
2018-09-27T06:37:55.155Z,-6.5741
2018-09-27T06:39:00.600Z,-7.5729
2018-09-27T06:40:05.922Z,-7.5729
2018-09-27T06:41:11.479Z,-7.5729
2018-09-27T06:42:16.936Z,-7.5729
2018-09-27T06:43:22.333Z,-8.0749
2018-09-27T06:44:27.770Z,-7.5729
2018-09-27T06:45:33.221Z,-7.3245
2018-09-27T06:46:38.651Z,-7.5729
2018-09-27T06:47:43.819Z,-7.1554
2018-09-27T06:48:50.165Z,-7.5729
2018-09-27T06:49:55.988Z,-7.6574
2018-09-27T06:51:01.448Z,-7.4091
2018-09-27T06:52:06.573Z,-7.6574
2018-09-27T06:53:11.850Z,-7.4091
2018-09-27T06:54:17.335Z,-7.4091
2018-09-27T06:55:24.719Z,-7.4091
2018-09-27T06:56:31.356Z,-7.9058
2018-09-27T06:57:37.637Z,-7.6574
2018-09-27T06:58:43.065Z,-8.1542
2018-09-27T06:59:47.694Z,-8.1542
2018-09-27T07:00:53.204Z,-8.1542
2018-09-27T07:01:58.923Z,-8.1542
2018-09-27T07:03:03.772Z,-7.6574
2018-09-27T07:04:08.910Z,-7.9058
2018-09-27T07:05:14.139Z,-7.742
2018-09-27T07:06:19.003Z,-8.1542
2018-09-27T07:07:24.924Z,-8.4079
2018-09-27T07:08:30.263Z,-8.6562
2018-09-27T07:09:35.988Z,-8.6562
2018-09-27T07:10:41.131Z,-8.4079
2018-09-27T07:11:46.471Z,-8.1542
2018-09-27T07:12:52.619Z,-7.9904
2018-09-27T07:13:58.452Z,-8.4871
2018-09-27T07:15:03.427Z,-7.9904
2018-09-27T07:16:09.260Z,-8.4871
2018-09-27T07:17:14.688Z,-7.742
2018-09-27T07:18:19.866Z,-8.2388
2018-09-27T07:19:25.163Z,-7.24
2018-09-27T07:20:29.781Z,-7.9904
2018-09-27T07:21:35.004Z,-7.4883
2018-09-27T07:22:40.203Z,-8.2388
2018-09-27T07:23:45.651Z,-7.4883
2018-09-27T07:24:51.487Z,-7.0761
2018-09-27T07:25:56.631Z,-7.0761
2018-09-27T07:27:02.300Z,-7.5729
2018-09-27T07:28:06.981Z,-7.0761
2018-09-27T07:29:11.934Z,-7.742
2018-09-27T07:30:17.073Z,-6.3257
2018-09-27T07:31:22.053Z,-6.3257
2018-09-27T07:32:28.126Z,-6.5741
2018-09-27T07:33:33.612Z,-6.8278
2018-09-27T07:34:38.245Z,-6.3257
2018-09-27T07:35:42.536Z,-7.0761
2018-09-27T07:36:48.285Z,-7.3245
2018-09-27T07:37:53.717Z,-6.5741
2018-09-27T07:38:58.607Z,-6.5741
2018-09-27T07:40:03.553Z,-6.5741
2018-09-27T07:41:08.770Z,-6.8278
2018-09-27T07:42:14.050Z,-6.8278
2018-09-27T07:43:19.451Z,-6.5741
2018-09-27T07:44:25.211Z,-6.3257
2018-09-27T07:45:31.061Z,-6.3257
2018-09-27T07:46:35.929Z,-6.3257
2018-09-27T07:47:40.825Z,-6.0773
2018-09-27T07:48:46.547Z,-6.0773
2018-09-27T07:49:51.706Z,-6.3257
2018-09-27T07:50:57.138Z,-6.0773
2018-09-27T07:52:02.497Z,-6.3257
2018-09-27T07:53:07.365Z,-6.3257
2018-09-27T07:54:12.337Z,-6.3257
2018-09-27T07:55:18.385Z,-6.0773
2018-09-27T07:56:23.597Z,-5.829
2018-09-27T07:57:29.682Z,-6.0773
2018-09-27T07:58:35.228Z,-5.829
2018-09-27T07:59:40.383Z,-6.8278
2018-09-27T08:00:45.425Z,-5.829
2018-09-27T08:01:50.955Z,-5.5753
2018-09-27T08:02:56.431Z,-6.5741
2018-09-27T08:04:02.393Z,-5.5753
2018-09-27T08:05:07.625Z,-5.5753
2018-09-27T08:06:12.785Z,-4.6611
2018-09-27T08:07:18.598Z,-4.9147
2018-09-27T08:08:23.945Z,-4.9147
2018-09-27T08:09:29.617Z,-4.9147
2018-09-27T08:10:34.914Z,-5.3269
2018-09-27T08:11:40.626Z,-4.4127
2018-09-27T08:12:46.281Z,-4.8302
2018-09-27T08:13:51.154Z,-4.6611
2018-09-27T08:14:56.309Z,-4.6611
2018-09-27T08:16:01.750Z,-4.6611
2018-09-27T08:17:07.718Z,-5.0785
2018-09-27T08:18:12.650Z,-4.8302
2018-09-27T08:19:18.203Z,-4.5765
2018-09-27T08:20:24.097Z,-5.0785
2018-09-27T08:21:29.758Z,-4.8302
2018-09-27T08:22:35.208Z,-4.5765
2018-09-27T08:23:40.072Z,-4.5765
2018-09-27T08:24:45.268Z,-4.8302
2018-09-27T08:25:50.720Z,-4.3281
2018-09-27T08:26:55.592Z,-4.3281
2018-09-27T08:28:01.373Z,-3.8314
2018-09-27T08:29:06.462Z,-4.0797
2018-09-27T08:30:11.339Z,-4.8302
2018-09-27T08:31:17.180Z,-5.3269
2018-09-27T08:32:22.924Z,-4.5765
2018-09-27T08:33:28.764Z,-3.8314
2018-09-27T08:34:33.639Z,-4.8302
2018-09-27T08:35:38.257Z,-4.8302
2018-09-27T08:36:43.665Z,-4.3281
2018-09-27T08:37:49.103Z,-3.583
2018-09-27T08:38:54.742Z,-4.0797
2018-09-27T08:40:00.175Z,-3.8314
2018-09-27T08:41:05.608Z,-3.4139
2018-09-27T08:42:10.541Z,-4.0797
2018-09-27T08:43:15.251Z,-3.4139
2018-09-27T08:44:20.454Z,-3.1655
2018-09-27T08:45:27.412Z,-3.1655
2018-09-27T08:46:33.691Z,-2.9171
2018-09-27T08:47:39.133Z,-2.2513
2018-09-27T08:48:44.696Z,-2.2513
2018-09-27T08:49:49.892Z,-3.4139
2018-09-27T08:50:55.319Z,-2.2513
2018-09-27T08:52:00.820Z,-3.1655
2018-09-27T08:53:06.054Z,-2.2513
2018-09-27T08:54:11.220Z,-3.4139
2018-09-27T08:55:17.017Z,-1.5008
2018-09-27T08:56:22.504Z,-1.5008
2018-09-27T08:57:28.120Z,-1.7492
2018-09-27T08:58:33.390Z,-1.5008
2018-09-27T08:59:38.544Z,-0.5866
2018-09-27T09:00:44.374Z,-0.9988
2018-09-27T09:01:49.794Z,-0.835
2018-09-27T09:02:55.201Z,-0.835
2018-09-27T09:04:01.666Z,-1.2525
2018-09-27T09:05:07.052Z,-0.5866
2018-09-27T09:06:12.361Z,-0.835
2018-09-27T09:07:18.082Z,-0.0846
2018-09-27T09:08:23.313Z,0.4175
2018-09-27T09:09:29.381Z,-0.0846
2018-09-27T09:10:34.900Z,-0.0846
2018-09-27T09:11:40.374Z,0.1665
2018-09-27T09:12:46.086Z,-0.0846
2018-09-27T09:13:51.278Z,1.3344
2018-09-27T09:14:56.739Z,1.0834
2018-09-27T09:16:01.854Z,0.9169
2018-09-27T09:17:07.006Z,0.6685
2018-09-27T09:18:12.717Z,0.6685
2018-09-27T09:19:17.595Z,1.1679
2018-09-27T09:20:23.060Z,0.1665
2018-09-27T09:21:28.921Z,0.6685
2018-09-27T09:22:34.247Z,1.5827
2018-09-27T09:23:38.567Z,1.4163
2018-09-27T09:24:44.624Z,0.6685
2018-09-27T09:25:49.944Z,1.7492
2018-09-27T09:26:55.678Z,1.5827
2018-09-27T09:28:01.097Z,1.4163
2018-09-27T09:29:05.974Z,1.4163
2018-09-27T09:30:11.131Z,1.5827
2018-09-27T09:31:16.647Z,1.8338
2018-09-27T09:32:22.103Z,2.0821
2018-09-27T09:33:27.709Z,2.0821
2018-09-27T09:34:32.589Z,2.3332
2018-09-27T09:35:38.012Z,2.4996
2018-09-27T09:36:43.204Z,1.8338
2018-09-27T09:37:48.378Z,2.3332
2018-09-27T09:38:53.433Z,3.4984
2018-09-27T09:39:58.670Z,3.2474
2018-09-27T09:41:04.107Z,3.2474
2018-09-27T09:42:08.975Z,3.4984
2018-09-27T09:43:14.336Z,2.999
2018-09-27T09:44:19.269Z,3.9978
2018-09-27T09:45:24.705Z,4.7482
2018-09-27T09:46:30.521Z,3.7468
2018-09-27T09:47:35.406Z,3.7468
2018-09-27T09:48:40.385Z,3.7468
2018-09-27T09:49:45.597Z,3.7468
2018-09-27T09:50:50.824Z,3.7468
2018-09-27T09:51:56.373Z,4.4972
2018-09-27T09:53:01.586Z,4.4972
2018-09-27T09:54:06.621Z,4.2462
2018-09-27T09:55:12.506Z,4.2462
2018-09-27T09:56:18.019Z,5.2476
2018-09-27T09:57:23.468Z,4.7482
2018-09-27T09:58:29.138Z,5.747
2018-09-27T09:59:34.286Z,5.2476
2018-09-27T10:00:39.915Z,5.496
2018-09-27T10:01:44.779Z,6.1619
2018-09-27T10:02:50.267Z,5.496
2018-09-27T10:03:55.763Z,4.9966
2018-09-27T10:05:01.195Z,5.747
2018-09-27T10:06:06.630Z,6.6639
2018-09-27T10:07:12.332Z,5.496
2018-09-27T10:08:17.475Z,6.6639
2018-09-27T10:09:22.925Z,6.4129
2018-09-27T10:10:28.468Z,7.4117
2018-09-27T10:11:33.319Z,7.1633
2018-09-27T10:12:38.739Z,7.6627
2018-09-27T10:13:44.194Z,7.1633
2018-09-27T10:14:49.073Z,7.6627
2018-09-27T10:15:54.477Z,7.9111
2018-09-27T10:16:59.640Z,7.9111
2018-09-27T10:18:04.507Z,8.6615
2018-09-27T10:19:09.917Z,7.6627
2018-09-27T10:20:14.892Z,8.1621
2018-09-27T10:21:20.332Z,8.1621
2018-09-27T10:22:26.198Z,7.6627
2018-09-27T10:23:31.706Z,8.4131
2018-09-27T10:24:36.553Z,8.9125
2018-09-27T10:25:41.793Z,9.079
2018-09-27T10:26:47.395Z,8.9125
2018-09-27T10:27:52.688Z,9.079
2018-09-27T10:28:57.918Z,9.33
2018-09-27T10:30:03.223Z,10.0778
2018-09-27T10:31:08.364Z,9.5784
2018-09-27T10:32:13.345Z,9.5784
2018-09-27T10:33:18.790Z,9.9113
2018-09-27T10:34:24.279Z,10.5772
2018-09-27T10:35:29.194Z,10.1624
2018-09-27T10:36:34.457Z,10.4107
2018-09-27T10:37:39.893Z,10.9128
2018-09-27T10:38:44.480Z,11.5786
2018-09-27T10:39:49.964Z,11.3276
2018-09-27T10:40:55.120Z,11.3276
2018-09-27T10:41:59.697Z,11.4122
2018-09-27T10:43:05.202Z,11.4122
2018-09-27T10:44:09.903Z,11.5786
2018-09-27T10:45:15.334Z,13.0795
2018-09-27T10:46:21.081Z,12.3291
2018-09-27T10:47:26.269Z,12.078
2018-09-27T10:48:32.117Z,13.0795
2018-09-27T10:49:37.302Z,12.8285
2018-09-27T10:50:42.505Z,12.1626
2018-09-27T10:51:47.897Z,13.0795
2018-09-27T10:52:53.089Z,12.1626
2018-09-27T10:53:58.246Z,12.1626
2018-09-27T10:55:03.085Z,12.411
2018-09-27T10:56:07.788Z,11.9116
2018-09-27T10:57:13.305Z,12.411
2018-09-27T10:58:18.874Z,12.662
2018-09-27T10:59:23.823Z,12.913
2018-09-27T11:00:29.885Z,12.662
2018-09-27T11:01:35.318Z,12.913
2018-09-27T11:02:40.528Z,13.4943
2018-09-27T11:03:45.749Z,12.411
2018-09-27T11:04:50.905Z,13.4124
2018-09-27T11:05:56.491Z,13.4124
2018-09-27T11:07:02.075Z,13.9964
2018-09-27T11:08:07.517Z,14.2447
2018-09-27T11:09:12.660Z,14.2447
2018-09-27T11:10:18.129Z,14.7441
2018-09-27T11:11:24.026Z,14.2447
2018-09-27T11:12:30.034Z,15.2462
2018-09-27T11:13:35.269Z,14.7441
2018-09-27T11:14:40.417Z,13.8299
2018-09-27T11:15:46.122Z,15.4972
2018-09-27T11:16:51.550Z,14.4958
2018-09-27T11:17:56.691Z,14.5777
2018-09-27T11:19:02.097Z,16.496
2018-09-27T11:20:06.756Z,15.9966
2018-09-27T11:21:11.734Z,15.2462
2018-09-27T11:22:17.498Z,15.7456
2018-09-27T11:23:22.980Z,15.9966
2018-09-27T11:24:28.532Z,16.2476
2018-09-27T11:25:34.266Z,16.2476
2018-09-27T11:26:39.696Z,15.7456
2018-09-27T11:27:46.163Z,17.1645
2018-09-27T11:28:51.612Z,17.1645
2018-09-27T11:29:56.856Z,17.4129
2018-09-27T11:31:01.969Z,17.6639
2018-09-27T11:32:06.946Z,16.9135
2018-09-27T11:33:12.780Z,17.9149
2018-09-27T11:34:18.464Z,17.1645
2018-09-27T11:35:23.347Z,16.6625
2018-09-27T11:36:29.878Z,17.1645
2018-09-27T11:37:35.306Z,17.1645
2018-09-27T11:38:41.077Z,17.4129
2018-09-27T11:39:46.942Z,17.4129
2018-09-27T11:40:52.135Z,17.6639
2018-09-27T11:41:57.647Z,18.5808
2018-09-27T11:43:02.789Z,18.5808
2018-09-27T11:44:08.469Z,18.5808
2018-09-27T11:45:14.402Z,19.2493
2018-09-27T11:46:19.332Z,18.8318
2018-09-27T11:47:24.764Z,18.8318
2018-09-27T11:48:30.265Z,19.2493
2018-09-27T11:49:35.980Z,19.7487
2018-09-27T11:50:41.449Z,18.8318
2018-09-27T11:51:47.131Z,20.6656
2018-09-27T11:52:52.118Z,20.6656
2018-09-27T11:53:57.375Z,20.9166
2018-09-27T11:55:02.958Z,20.9166
2018-09-27T11:56:07.869Z,21.667
2018-09-27T11:57:13.105Z,21.1676
2018-09-27T11:58:18.795Z,22.3329
2018-09-27T11:59:23.957Z,22.0845
2018-09-27T12:00:29.890Z,22.8349
2018-09-27T12:01:35.323Z,21.667
2018-09-27T12:02:40.682Z,21.667
2018-09-27T12:03:45.872Z,22.3329
2018-09-27T12:04:50.714Z,23.8364
2018-09-27T12:05:56.023Z,23.0859
2018-09-27T12:07:01.980Z,23.8364
2018-09-27T12:08:06.833Z,24.0847
2018-09-27T12:09:12.394Z,25.2553
2018-09-27T12:10:18.350Z,24.0847
2018-09-27T12:11:23.779Z,24.0847
2018-09-27T12:12:28.733Z,24.2538
2018-09-27T12:13:35.037Z,25.0043
2018-09-27T12:14:40.879Z,25.2553
2018-09-27T12:15:46.684Z,25.5037
2018-09-27T12:16:52.344Z,25.5037
2018-09-27T12:17:57.626Z,26.2567
2018-09-27T12:19:03.032Z,25.7547
2018-09-27T12:20:08.757Z,26.2567
2018-09-27T12:21:14.205Z,26.2567
2018-09-27T12:22:20.011Z,26.6742
2018-09-27T12:23:25.075Z,26.2567
2018-09-27T12:24:30.500Z,25.7547
2018-09-27T12:25:35.684Z,26.5051
2018-09-27T12:26:40.574Z,26.5051
2018-09-27T12:27:46.332Z,27.1736
2018-09-27T12:28:51.932Z,26.6742
2018-09-27T12:29:56.827Z,27.6757
2018-09-27T12:31:02.544Z,27.4246
2018-09-27T12:32:07.618Z,27.4246
2018-09-27T12:33:12.479Z,27.4246
2018-09-27T12:34:17.968Z,27.6757
2018-09-27T12:35:23.397Z,28.5925
2018-09-27T12:36:28.808Z,28.175
2018-09-27T12:37:34.398Z,28.3415
2018-09-27T12:38:39.349Z,29.0946
2018-09-27T12:39:46.033Z,28.5925
2018-09-27T12:40:50.953Z,28.8436
2018-09-27T12:41:57.285Z,29.5121
2018-09-27T12:43:03.861Z,29.7604
2018-09-27T12:44:09.094Z,30.5135
2018-09-27T12:45:15.001Z,31.0129
2018-09-27T12:46:20.466Z,29.7604
2018-09-27T12:47:25.868Z,30.7619
2018-09-27T12:48:31.482Z,30.5135
2018-09-27T12:49:37.352Z,30.2625
2018-09-27T12:50:43.622Z,31.5149
2018-09-27T12:51:50.456Z,30.2625
2018-09-27T12:52:56.117Z,32.0143
2018-09-27T12:54:01.366Z,31.766
2018-09-27T12:55:05.474Z,30.7619
2018-09-27T12:56:11.119Z,32.1834
2018-09-27T12:57:17.113Z,32.1834
2018-09-27T12:58:22.901Z,32.6828
2018-09-27T12:59:27.881Z,31.2639
2018-09-27T13:00:33.717Z,32.1834
2018-09-27T13:01:38.940Z,32.6828
2018-09-27T13:02:45.701Z,32.9339
2018-09-27T13:03:51.900Z,33.4359
2018-09-27T13:04:57.363Z,33.1849
2018-09-27T13:06:02.608Z,33.4359
2018-09-27T13:07:08.535Z,32.9339
2018-09-27T13:08:14.243Z,33.1849
2018-09-27T13:09:20.974Z,33.1849
2018-09-27T13:10:27.239Z,34.1863